createdAt,value
2018-02-15T00:02:24.166Z,93747.59
2018-02-15T00:04:50.833Z,93746.16
2018-02-15T00:07:17.460Z,93734.23
2018-02-15T00:09:44.096Z,93740.95
2018-02-15T00:12:10.719Z,93742.47
2018-02-15T00:14:37.343Z,93743.22
2018-02-15T00:17:03.940Z,93741.01
2018-02-15T00:19:30.582Z,93737.21
2018-02-15T00:21:57.195Z,93726.53
2018-02-15T00:24:23.781Z,93718.84
2018-02-15T00:26:50.377Z,93723.94
2018-02-15T00:29:17.047Z,93716.91
2018-02-15T00:31:43.647Z,93711.54
2018-02-15T00:34:10.267Z,93717.98
2018-02-15T00:36:36.846Z,93725.30
2018-02-15T00:39:03.516Z,93732.18
2018-02-15T00:41:30.167Z,93730.47
2018-02-15T00:43:57.487Z,93726.16
2018-02-15T00:46:24.122Z,93724.81
2018-02-15T00:48:50.736Z,93720.75
2018-02-15T01:04:17.170Z,93706.58
2018-02-15T01:06:43.799Z,93702.30
2018-02-15T01:09:10.394Z,93707.55
2018-02-15T01:11:36.987Z,93716.93
2018-02-15T01:14:03.553Z,93721.46
2018-02-15T01:16:31.079Z,93713.96
2018-02-15T01:18:57.700Z,93714.94
2018-02-15T01:21:24.281Z,93716.44
2018-02-15T01:23:50.883Z,93717.83
2018-02-15T01:26:18.071Z,93721.27
2018-02-15T01:28:44.691Z,93722.74
2018-02-15T01:31:12.045Z,93726.80
2018-02-15T01:33:39.398Z,93735.05
2018-02-15T01:36:06.754Z,93729.64
2018-02-15T01:38:33.361Z,93737.80
2018-02-15T01:40:59.965Z,93734.11
2018-02-15T01:43:26.547Z,93728.59
2018-02-15T01:45:53.895Z,93726.46
2018-02-15T01:48:20.545Z,93720.94
2018-02-15T01:50:47.163Z,93714.03
2018-02-15T01:53:13.773Z,93714.67
2018-02-15T01:55:40.359Z,93721.78
2018-02-15T01:58:06.917Z,93715.23
2018-02-15T02:00:33.531Z,93717.55
2018-02-15T02:03:00.918Z,93721.67
2018-02-15T02:05:28.218Z,93713.80
2018-02-15T02:07:54.830Z,93719.27
2018-02-15T02:10:21.401Z,93705.78
2018-02-15T02:12:48.010Z,93691.55
2018-02-15T02:15:14.607Z,93688.17
2018-02-15T02:17:41.310Z,93681.39
2018-02-15T02:20:07.908Z,93687.91
2018-02-15T02:22:34.518Z,93687.25
2018-02-15T02:25:01.850Z,93675.63
2018-02-15T02:27:29.171Z,93666.41
2018-02-15T02:29:55.759Z,93652.75
2018-02-15T02:32:22.333Z,93644.11
2018-02-15T02:34:48.905Z,93640.45
2018-02-15T02:37:15.504Z,93637.66
2018-02-15T02:39:42.866Z,93630.00
2018-02-15T02:42:09.598Z,93616.59
2018-02-15T02:44:36.226Z,93618.22
2018-02-15T02:47:02.797Z,93624.09
2018-02-15T02:49:29.435Z,93614.31
2018-02-15T02:51:56.529Z,93610.98
2018-02-15T02:54:23.123Z,93608.30
2018-02-15T02:56:49.676Z,93600.80
2018-02-15T02:59:16.269Z,93604.72
2018-02-15T03:01:42.856Z,93609.62
2018-02-15T03:04:09.461Z,93612.55
2018-02-15T03:06:36.062Z,93616.70
2018-02-15T03:09:02.770Z,93607.53
2018-02-15T03:11:30.137Z,93611.39
2018-02-15T03:13:56.725Z,93616.02
2018-02-15T03:16:23.335Z,93623.97
2018-02-15T03:18:49.924Z,93619.22
2018-02-15T03:21:16.529Z,93619.13
2018-02-15T03:23:43.129Z,93614.85
2018-02-15T03:26:10.545Z,93621.80
2018-02-15T03:28:37.895Z,93614.78
2018-02-15T03:31:04.547Z,93613.87
2018-02-15T03:33:31.115Z,93611.16
2018-02-15T03:35:58.449Z,93610.88
2018-02-15T03:38:25.772Z,93615.07
2018-02-15T03:40:52.386Z,93614.13
2018-02-15T03:43:18.974Z,93619.47
2018-02-15T03:45:45.586Z,93621.16
2018-02-15T03:48:12.166Z,93626.43
2018-02-15T03:50:38.786Z,93628.72
2018-02-15T03:53:05.375Z,93629.66
2018-02-15T03:55:31.961Z,93631.56
2018-02-15T03:57:59.291Z,93628.24
2018-02-15T04:00:25.899Z,93626.64
2018-02-15T04:02:52.485Z,93622.66
2018-02-15T04:05:19.093Z,93614.70
2018-02-15T04:07:45.641Z,93608.66
2018-02-15T04:10:12.212Z,93610.88
2018-02-15T04:12:39.540Z,93612.16
2018-02-15T04:15:06.134Z,93611.61
2018-02-15T04:17:32.710Z,93612.98
2018-02-15T04:19:59.275Z,93616.87
2018-02-15T04:22:26.629Z,93622.13
2018-02-15T04:24:53.946Z,93622.21
2018-02-15T04:27:20.573Z,93624.61
2018-02-15T04:29:47.163Z,93619.29
2018-02-15T04:32:13.755Z,93625.73
2018-02-15T04:34:40.396Z,93630.88
2018-02-15T04:37:06.967Z,93623.92
2018-02-15T04:39:34.298Z,93621.02
2018-02-15T04:42:01.625Z,93620.33
2018-02-15T04:44:28.210Z,93622.91
2018-02-15T04:46:55.544Z,93621.98
2018-02-15T04:49:22.177Z,93623.73
2018-02-15T04:51:48.881Z,93624.84
2018-02-15T04:54:15.485Z,93618.99
2018-02-15T04:56:42.068Z,93620.41
2018-02-15T04:59:08.647Z,93624.62
2018-02-15T05:01:35.277Z,93620.18
2018-02-15T05:04:02.673Z,93612.05
2018-02-15T05:06:29.251Z,93611.51
2018-02-15T05:08:55.983Z,93606.89
2018-02-15T05:11:22.551Z,93616.38
2018-02-15T05:13:49.136Z,93618.54
2018-02-15T05:16:15.706Z,93625.61
2018-02-15T05:18:42.297Z,93619.93
2018-02-15T05:21:08.887Z,93626.85
2018-02-15T05:23:35.512Z,93628.08
2018-02-15T05:26:02.067Z,93632.70
2018-02-15T05:28:29.411Z,93631.13
2018-02-15T05:30:56.739Z,93627.30
2018-02-15T05:33:23.324Z,93629.31
2018-02-15T05:35:49.918Z,93634.75
2018-02-15T05:38:17.310Z,93629.66
2018-02-15T05:40:43.945Z,93622.63
2018-02-15T05:43:10.557Z,93625.98
2018-02-15T05:45:37.890Z,93633.23
2018-02-15T05:48:04.470Z,93631.66
2018-02-15T05:50:31.082Z,93636.03
2018-02-15T05:52:57.677Z,93633.30
2018-02-15T05:55:24.277Z,93635.11
2018-02-15T05:57:51.611Z,93637.58
2018-02-15T06:00:18.230Z,93636.75
2018-02-15T06:02:44.802Z,93633.58
2018-02-15T06:05:12.151Z,93647.52
2018-02-15T06:07:38.739Z,93648.86
2018-02-15T06:10:05.927Z,93643.36
2018-02-15T06:12:32.542Z,93639.69
2018-02-15T06:14:59.404Z,93650.05
2018-02-15T06:17:26.021Z,93659.83
2018-02-15T06:19:52.615Z,93650.88
2018-02-15T06:22:20.175Z,93652.73
2018-02-15T06:24:46.808Z,93655.66
2018-02-15T06:27:13.436Z,93659.17
2018-02-15T06:29:41.097Z,93654.02
2018-02-15T06:32:08.431Z,93657.53
2018-02-15T06:34:35.041Z,93653.09
2018-02-15T06:37:02.420Z,93651.15
2018-02-15T06:39:29.042Z,93652.69
2018-02-15T06:41:55.644Z,93655.37
2018-02-15T06:44:22.302Z,93649.92
2018-02-15T06:46:48.918Z,93642.89
2018-02-15T06:49:15.588Z,93640.00
2018-02-15T06:51:42.219Z,93644.40
2018-02-15T06:54:08.842Z,93640.31
2018-02-15T06:56:35.476Z,93632.06
2018-02-15T06:59:02.075Z,93636.79
2018-02-15T07:01:29.438Z,93632.46
2018-02-15T07:03:56.804Z,93631.30
2018-02-15T07:06:23.412Z,93633.88
2018-02-15T07:08:50.031Z,93638.44
2018-02-15T07:11:16.709Z,93636.41
2018-02-15T07:13:43.311Z,93632.17
2018-02-15T07:16:09.921Z,93635.98
2018-02-15T07:18:36.523Z,93637.08
2018-02-15T07:21:03.166Z,93634.51
2018-02-15T07:23:29.757Z,93643.32
2018-02-15T07:25:56.419Z,93643.86
2018-02-15T07:28:23.874Z,93648.39
2018-02-15T07:30:51.230Z,93643.23
2018-02-15T07:33:18.599Z,93647.39
2018-02-15T07:35:45.207Z,93651.03
2018-02-15T07:38:11.946Z,93656.53
2018-02-15T07:40:39.323Z,93656.47
2018-02-15T07:43:06.666Z,93659.52
2018-02-15T07:45:34.018Z,93657.98
2018-02-15T07:48:01.420Z,93653.64
2018-02-15T07:50:28.107Z,93654.99
2018-02-15T07:52:55.512Z,93656.62
2018-02-15T07:55:22.152Z,93658.38
2018-02-15T07:57:48.768Z,93657.03
2018-02-15T08:00:15.407Z,93660.42
2018-02-15T08:02:42.015Z,93659.48
2018-02-15T08:05:08.677Z,93665.57
2018-02-15T08:07:36.051Z,93664.08
2018-02-15T08:10:02.694Z,93658.39
2018-02-15T08:12:29.345Z,93648.85
2018-02-15T08:14:55.978Z,93656.94
2018-02-15T08:17:22.592Z,93658.11
2018-02-15T08:19:49.215Z,93669.30
2018-02-15T08:22:15.830Z,93668.84
2018-02-15T08:24:42.504Z,93677.34
2018-02-15T08:27:09.126Z,93678.26
2018-02-15T08:29:36.479Z,93690.54
2018-02-15T08:32:03.906Z,93692.30
2018-02-15T08:34:30.504Z,93688.23
2018-02-15T08:36:57.118Z,93682.77
2018-02-15T08:39:24.575Z,93688.64
2018-02-15T08:41:51.537Z,93674.17
2018-02-15T08:44:25.271Z,93672.23
2018-02-15T08:46:57.558Z,93678.00
2018-02-15T08:49:24.172Z,93660.28
2018-02-15T08:51:50.815Z,93657.77
2018-02-15T08:54:17.408Z,93655.59
2018-02-15T08:56:44.059Z,93657.44
2018-02-15T08:59:10.707Z,93647.23
2018-02-15T09:01:37.359Z,93648.83
2018-02-15T09:04:03.999Z,93640.09
2018-02-15T09:06:31.055Z,93645.70
2018-02-15T09:08:57.692Z,93655.80
2018-02-15T09:11:24.314Z,93656.31
2018-02-15T09:13:50.993Z,93646.20
2018-02-15T09:16:18.415Z,93649.33
2018-02-15T09:18:45.106Z,93644.25
2018-02-15T09:21:11.767Z,93641.08
2018-02-15T09:23:38.422Z,93643.48
2018-02-15T09:26:05.056Z,93641.44
2018-02-15T09:28:31.734Z,93642.75
2018-02-15T09:30:58.376Z,93652.11
2018-02-15T09:33:25.804Z,93653.52
2018-02-15T09:35:52.445Z,93657.61
2018-02-15T09:38:19.110Z,93662.28
2018-02-15T09:40:46.454Z,93651.37
2018-02-15T09:43:13.103Z,93653.29
2018-02-15T09:45:39.732Z,93646.63
2018-02-15T09:48:06.444Z,93640.08
2018-02-15T09:50:33.069Z,93648.86
2018-02-15T09:52:59.731Z,93646.32
2018-02-15T09:55:27.099Z,93630.31
2018-02-15T09:57:53.818Z,93636.90
2018-02-15T10:00:20.443Z,93639.73
2018-02-15T10:02:47.121Z,93641.84
2018-02-15T10:05:13.800Z,93659.95
2018-02-15T10:07:40.438Z,93659.95
2018-02-15T10:10:07.102Z,93674.50
2018-02-15T10:12:33.776Z,93659.56
2018-02-15T10:15:00.439Z,93670.52
2018-02-15T10:17:27.073Z,93664.69
2018-02-15T10:19:53.737Z,93669.41
2018-02-15T10:22:20.374Z,93673.91
2018-02-15T10:24:47.027Z,93672.72
2018-02-15T10:27:13.690Z,93670.31
2018-02-15T10:29:40.339Z,93658.38
2018-02-15T10:32:07.732Z,93662.72
2018-02-15T10:34:34.436Z,93654.33
2018-02-15T10:37:01.109Z,93660.19
2018-02-15T10:39:27.737Z,93656.15
2018-02-15T10:41:54.339Z,93662.33
2018-02-15T10:44:21.003Z,93675.73
2018-02-15T10:46:47.645Z,93671.25
2018-02-15T10:49:15.003Z,93672.50
2018-02-15T10:51:41.647Z,93670.12
2018-02-15T10:54:08.271Z,93672.27
2018-02-15T10:56:34.896Z,93676.56
2018-02-15T10:59:01.552Z,93685.98
2018-02-15T11:01:34.311Z,93679.68
2018-02-15T11:04:03.619Z,93688.98
2018-02-15T11:06:30.973Z,93688.94
2018-02-15T11:08:58.344Z,93677.86
2018-02-15T11:11:25.008Z,93680.84
2018-02-15T11:13:51.745Z,93675.25
2018-02-15T11:16:18.274Z,93668.73
2018-02-15T11:18:44.946Z,93677.99
2018-02-15T11:21:11.574Z,93682.26
2018-02-15T11:23:38.175Z,93680.48
2018-02-15T11:26:04.815Z,93674.25
2018-02-15T11:28:31.422Z,93678.52
2018-02-15T11:30:58.075Z,93674.44
2018-02-15T11:33:25.708Z,93679.70
2018-02-15T11:35:52.310Z,93681.83
2018-02-15T11:38:18.926Z,93679.22
2018-02-15T11:40:45.571Z,93682.40
2018-02-15T11:43:12.216Z,93688.80
2018-02-15T11:45:38.854Z,93686.75
2018-02-15T11:48:05.450Z,93686.89
2018-02-15T11:50:32.822Z,93687.05
2018-02-15T11:52:59.436Z,93691.08
2018-02-15T11:55:26.080Z,93697.11
2018-02-15T11:57:52.846Z,93691.59
2018-02-15T12:00:19.464Z,93686.48
2018-02-15T12:02:46.863Z,93694.70
2018-02-15T12:05:13.522Z,93688.67
2018-02-15T12:07:40.132Z,93695.44
2018-02-15T12:10:06.806Z,93699.80
2018-02-15T12:12:33.471Z,93707.33
2018-02-15T12:15:00.168Z,93706.28
2018-02-15T12:17:26.763Z,93703.88
2018-02-15T12:19:53.406Z,93710.17
2018-02-15T12:22:20.008Z,93714.37
2018-02-15T12:24:46.655Z,93709.11
2018-02-15T12:27:14.026Z,93711.13
2018-02-15T12:29:41.412Z,93708.88
2018-02-15T12:32:08.060Z,93708.01
2018-02-15T12:34:34.699Z,93705.66
2018-02-15T12:49:57.382Z,93678.70
2018-02-15T12:52:24.029Z,93677.74
2018-02-15T12:54:50.686Z,93689.78
2018-02-15T12:57:17.312Z,93688.02
2018-02-15T12:59:44.330Z,93699.31
2018-02-15T13:02:11.769Z,93691.95
2018-02-15T13:04:39.080Z,93685.88
2018-02-15T13:07:05.754Z,93689.23
2018-02-15T13:09:32.410Z,93679.59
2018-02-15T13:11:59.770Z,93696.78
2018-02-15T13:14:26.500Z,93699.87
2018-02-15T13:16:56.655Z,93700.33
2018-02-15T13:19:41.745Z,93702.73
2018-02-15T13:22:27.463Z,93707.38
2018-02-15T13:24:54.028Z,93713.17
2018-02-15T13:40:54.136Z,93737.89
2018-02-15T13:43:20.763Z,93732.44
2018-02-15T13:45:48.134Z,93740.27
2018-02-15T13:48:14.794Z,93733.66
2018-02-15T13:50:41.474Z,93731.80
2018-02-15T13:53:08.266Z,93727.36
2018-02-15T13:55:34.903Z,93724.55
2018-02-15T13:58:01.540Z,93735.23
2018-02-15T14:00:28.250Z,93729.08
2018-02-15T14:02:55.670Z,93737.95
2018-02-15T14:05:22.404Z,93740.92
2018-02-15T14:07:49.045Z,93740.93
2018-02-15T14:10:15.899Z,93739.97
2018-02-15T14:12:42.557Z,93739.67
2018-02-15T14:15:09.191Z,93741.45
2018-02-15T14:17:35.879Z,93739.52
2018-02-15T14:20:02.541Z,93736.25
2018-02-15T14:22:29.207Z,93738.14
2018-02-15T14:24:56.655Z,93740.97
2018-02-15T14:27:23.310Z,93739.62
2018-02-15T14:29:53.472Z,93747.49
2018-02-15T14:32:20.101Z,93747.49
2018-02-15T14:34:46.857Z,93745.56
2018-02-15T14:37:13.576Z,93753.73
2018-02-15T14:39:40.212Z,93753.61
2018-02-15T14:42:06.912Z,93755.70
2018-02-15T14:44:33.563Z,93758.44
2018-02-15T14:47:00.956Z,93758.19
2018-02-15T14:49:27.598Z,93761.93
2018-02-15T14:51:54.242Z,93761.30
2018-02-15T14:54:20.905Z,93769.09
2018-02-15T14:56:47.588Z,93767.64
2018-02-15T14:59:14.210Z,93766.75
2018-02-15T15:01:41.675Z,93773.14
2018-02-15T15:04:09.403Z,93779.11
2018-02-15T15:06:36.059Z,93770.88
2018-02-15T15:09:02.775Z,93781.74
2018-02-15T15:11:30.224Z,93777.59
2018-02-15T15:13:56.936Z,93782.48
2018-02-15T15:16:23.595Z,93783.71
2018-02-15T15:18:50.251Z,93776.66
2018-02-15T15:21:16.953Z,93776.55
2018-02-15T15:23:43.572Z,93779.81
2018-02-15T15:26:10.227Z,93777.92
2018-02-15T15:28:36.877Z,93778.77
2018-02-15T15:31:03.552Z,93783.79
2018-02-15T15:33:30.188Z,93789.69
2018-02-15T15:35:56.948Z,93786.45
2018-02-15T15:38:24.374Z,93793.91
2018-02-15T15:40:51.060Z,93793.39
2018-02-15T15:43:17.779Z,93797.66
2018-02-15T15:45:45.212Z,93800.67
2018-02-15T15:48:11.927Z,93794.88
2018-02-15T15:50:38.577Z,93798.21
2018-02-15T15:53:05.193Z,93803.41
2018-02-15T15:55:31.823Z,93800.56
2018-02-15T15:57:58.516Z,93808.64
2018-02-15T16:00:25.914Z,93809.94
2018-02-15T16:02:52.583Z,93808.41
2018-02-15T16:05:19.268Z,93808.97
2018-02-15T16:07:46.656Z,93807.11
2018-02-15T16:10:13.295Z,93804.59
2018-02-15T16:12:40.080Z,93810.55
2018-02-15T16:15:07.472Z,93811.08
2018-02-15T16:17:34.099Z,93809.19
2018-02-15T16:20:00.899Z,93812.86
2018-02-15T16:22:27.844Z,93813.27
2018-02-15T16:24:55.208Z,93815.48
2018-02-15T16:27:21.853Z,93805.48
2018-02-15T16:29:48.543Z,93806.05
2018-02-15T16:32:15.473Z,93816.33
2018-02-15T16:34:42.143Z,93806.97
2018-02-15T16:37:08.797Z,93818.39
2018-02-15T16:39:35.456Z,93823.45
2018-02-15T16:42:02.085Z,93823.58
2018-02-15T16:44:28.749Z,93822.56
2018-02-15T16:46:55.418Z,93826.05
2018-02-15T16:49:22.084Z,93825.92
2018-02-15T16:51:48.719Z,93839.09
2018-02-15T16:54:16.236Z,93839.52
2018-02-15T16:56:42.921Z,93835.00
2018-02-15T16:59:09.593Z,93835.84
2018-02-15T17:01:36.231Z,93832.55
2018-02-15T17:04:03.647Z,93834.17
2018-02-15T17:06:30.352Z,93838.55
2018-02-15T17:08:57.009Z,93849.16
2018-02-15T17:11:23.670Z,93859.77
2018-02-15T17:13:50.327Z,93845.00
2018-02-15T17:16:17.744Z,93843.20
2018-02-15T17:18:44.461Z,93845.20
2018-02-15T17:21:11.137Z,93842.13
2018-02-15T17:23:37.765Z,93851.66
2018-02-15T17:26:04.434Z,93854.70
2018-02-15T17:28:31.869Z,93856.79
2018-02-15T17:30:58.551Z,93856.60
2018-02-15T17:33:25.251Z,93856.38
2018-02-15T17:35:51.878Z,93857.67
2018-02-15T17:38:18.544Z,93863.45
2018-02-15T17:40:45.948Z,93853.39
2018-02-15T17:43:12.666Z,93858.18
2018-02-15T17:45:39.370Z,93849.34
2018-02-15T17:48:06.041Z,93857.03
2018-02-15T17:50:32.726Z,93861.74
2018-02-15T17:52:59.424Z,93859.41
2018-02-15T17:55:26.076Z,93861.92
2018-02-15T17:57:52.751Z,93862.00
2018-02-15T18:00:19.418Z,93858.08
2018-02-15T18:02:46.424Z,93860.30
2018-02-15T18:05:14.075Z,93856.33
2018-02-15T18:07:40.752Z,93863.31
2018-02-15T18:10:08.200Z,93854.75
2018-02-15T18:12:34.860Z,93858.31
2018-02-15T18:15:01.588Z,93856.19
2018-02-15T18:17:28.320Z,93859.80
2018-02-15T18:20:07.191Z,93854.27
2018-02-15T18:22:35.016Z,93853.59
2018-02-15T18:25:02.528Z,93857.16
2018-02-15T18:27:29.156Z,93860.02
2018-02-15T18:29:55.987Z,93865.07
2018-02-15T18:32:22.640Z,93859.87
2018-02-15T18:34:49.389Z,93870.75
2018-02-15T18:37:16.049Z,93867.94
2018-02-15T18:39:42.741Z,93864.30
2018-02-15T18:42:09.463Z,93865.94
2018-02-15T18:44:36.173Z,93861.22
2018-02-15T18:47:02.889Z,93870.98
2018-02-15T18:49:29.690Z,93875.22
2018-02-15T18:51:56.395Z,93871.73
2018-02-15T18:54:23.506Z,93873.55
2018-02-15T18:56:50.152Z,93871.28
2018-02-15T18:59:16.802Z,93876.71
2018-02-15T19:01:43.527Z,93876.34
2018-02-15T19:04:10.226Z,93880.42
2018-02-15T19:06:36.932Z,93878.67
2018-02-15T19:09:03.709Z,93877.93
2018-02-15T19:11:30.385Z,93870.88
2018-02-15T19:13:57.063Z,93865.53
2018-02-15T19:16:24.498Z,93862.85
2018-02-15T19:18:51.155Z,93866.23
2018-02-15T19:21:17.989Z,93863.48
2018-02-15T19:23:45.592Z,93872.59
2018-02-15T19:26:12.239Z,93874.14
2018-02-15T19:28:38.945Z,93867.49
2018-02-15T19:31:06.359Z,93872.70
2018-02-15T19:33:33.018Z,93869.50
2018-02-15T19:39:18.855Z,93877.48
2018-02-15T19:44:47.389Z,93868.72
2018-02-15T19:47:14.048Z,93868.82
2018-02-15T19:49:40.716Z,93869.15
2018-02-15T19:52:07.439Z,93866.63
2018-02-15T19:54:34.138Z,93860.38
2018-02-15T19:57:00.825Z,93862.16
2018-02-15T19:59:27.469Z,93868.58
2018-02-15T20:01:54.135Z,93860.52
2018-02-15T20:04:20.792Z,93860.94
2018-02-15T20:06:47.559Z,93862.90
2018-02-15T20:09:14.233Z,93866.97
2018-02-15T20:11:40.882Z,93862.59
2018-02-15T20:14:07.564Z,93860.31
2018-02-15T20:16:34.977Z,93862.91
2018-02-15T20:19:02.354Z,93860.89
2018-02-15T20:21:29.079Z,93854.03
2018-02-15T20:23:55.755Z,93858.05
2018-02-15T20:26:28.490Z,93851.85
2018-02-15T20:28:55.215Z,93854.20
2018-02-15T20:31:21.866Z,93857.21
2018-02-15T20:33:49.258Z,93856.98
2018-02-15T20:36:15.966Z,93858.03
2018-02-15T20:38:49.444Z,93867.72
2018-02-15T20:41:16.132Z,93869.41
2018-02-15T20:43:42.855Z,93868.59
2018-02-15T20:46:09.581Z,93873.98
2018-02-15T20:48:36.267Z,93875.77
2018-02-15T20:51:09.196Z,93872.67
2018-02-15T20:53:42.545Z,93874.94
2018-02-15T20:56:09.230Z,93883.23
2018-02-15T20:58:36.620Z,93885.75
2018-02-15T21:01:03.302Z,93879.74
2018-02-15T21:03:29.963Z,93885.20
2018-02-15T21:05:56.696Z,93877.55
2018-02-15T21:08:23.368Z,93873.31
2018-02-15T21:10:50.015Z,93874.63
2018-02-15T21:13:16.704Z,93877.23
2018-02-15T21:15:44.698Z,93876.33
2018-02-15T21:18:11.368Z,93875.20
2018-02-15T21:20:38.099Z,93867.05
2018-02-15T21:23:05.636Z,93869.99
2018-02-15T21:25:32.282Z,93863.97
2018-02-15T21:27:59.007Z,93860.54
2018-02-15T21:30:26.422Z,93854.19
2018-02-15T21:32:53.103Z,93848.26
2018-02-15T21:35:19.757Z,93854.94
2018-02-15T21:37:46.457Z,93858.75
2018-02-15T21:40:13.113Z,93858.69
2018-02-15T21:42:40.511Z,93863.82
2018-02-15T21:45:07.279Z,93862.98
2018-02-15T21:47:33.939Z,93861.53
2018-02-15T21:50:01.391Z,93859.73
2018-02-15T21:52:28.040Z,93871.06
2018-02-15T21:54:55.415Z,93864.23
2018-02-15T21:57:22.052Z,93876.52
2018-02-15T21:59:48.733Z,93877.50
2018-02-15T22:02:15.407Z,93890.58
2018-02-15T22:04:42.089Z,93901.66
2018-02-15T22:07:08.792Z,93906.71
2018-02-15T22:09:35.494Z,93909.05
2018-02-15T22:12:02.931Z,93908.91
2018-02-15T22:27:25.928Z,93926.31
2018-02-15T22:29:52.524Z,93932.91
2018-02-15T22:32:19.459Z,93932.81
2018-02-15T22:34:46.062Z,93926.20
2018-02-15T22:37:12.663Z,93922.94
2018-02-15T22:39:39.277Z,93924.27
2018-02-15T22:42:05.895Z,93929.78
2018-02-15T22:44:32.544Z,93928.38
2018-02-15T22:46:59.237Z,93931.89
2018-02-15T22:49:26.570Z,93927.65
2018-02-15T22:51:53.199Z,93932.88
2018-02-15T22:54:19.824Z,93935.80
2018-02-15T22:56:46.442Z,93934.40
2018-02-15T22:59:13.060Z,93934.23
2018-02-15T23:01:40.042Z,93937.09
2018-02-15T23:04:06.687Z,93937.81
2018-02-15T23:06:34.074Z,93938.87
2018-02-15T23:09:00.694Z,93943.98
2018-02-15T23:11:29.393Z,93946.53
2018-02-15T23:13:56.035Z,93955.30
2018-02-15T23:16:22.679Z,93953.91
2018-02-15T23:18:49.343Z,93954.48
2018-02-15T23:21:15.988Z,93958.36
2018-02-15T23:23:42.627Z,93963.97
2018-02-15T23:26:09.259Z,93964.63
2018-02-15T23:28:35.870Z,93969.91
2018-02-15T23:31:02.474Z,93973.51
2018-02-15T23:33:29.102Z,93979.79
2018-02-15T23:35:55.712Z,93974.42
2018-02-15T23:38:22.380Z,93982.31
2018-02-15T23:40:48.970Z,93989.45
2018-02-15T23:43:15.625Z,93988.97
2018-02-15T23:45:42.282Z,93997.19
2018-02-15T23:48:08.911Z,93986.93
2018-02-15T23:50:35.557Z,93996.27
2018-02-15T23:53:02.203Z,94001.87
2018-02-15T23:55:30.259Z,94011.80
2018-02-15T23:57:56.907Z,94005.38
